KLM1048 EGBB-EHAM
Flight info
| Callsign | KLM1048 |
|---|---|
| Flight time | 0h 48m |
| Altitude | 31000 |
| Route | UNGAP P155 SIVDA P137 REDFA |
| Aircraft | B738/M-SDE2E3FGHIRWXY/LB1 |
Departure
| Time | 2026-05-04 11:38 |
|---|---|
| Airport | Birmingham Airport (EGBB) |
Arrival
| Time | 2026-05-04 12:27 |
|---|---|
| Airport | Amsterdam Airport Schiphol (EHAM) |
| Time | Latitude | Longitude | Altitude | Speed | Heading |
|---|---|---|---|---|---|
| 2026-05-04 10:51 | 52.45245 | -1.73614 | 332 ft | 0 kts | 326° |
| 2026-05-04 11:25 | 52.45234 | -1.73602 | 333 ft | 2 kts | 325° |
| 2026-05-04 11:25 | 52.45222 | -1.73588 | 333 ft | 2 kts | 326° |
| 2026-05-04 11:25 | 52.45209 | -1.73575 | 333 ft | 2 kts | 326° |
| 2026-05-04 11:26 | 52.45190 | -1.73550 | 334 ft | 2 kts | 298° |
| 2026-05-04 11:27 | 52.45193 | -1.73498 | 335 ft | 0 kts | 236° |
| 2026-05-04 11:33 | 52.45177 | -1.73540 | 334 ft | 6 kts | 236° |
| 2026-05-04 11:33 | 52.45151 | -1.73603 | 333 ft | 7 kts | 236° |
| 2026-05-04 11:33 | 52.45123 | -1.73672 | 332 ft | 7 kts | 236° |
| 2026-05-04 11:34 | 52.45089 | -1.73733 | 332 ft | 5 kts | 210° |
| 2026-05-04 11:34 | 52.45047 | -1.73749 | 332 ft | 9 kts | 172° |
| 2026-05-04 11:34 | 52.44973 | -1.73677 | 334 ft | 12 kts | 146° |
| 2026-05-04 11:34 | 52.44898 | -1.73652 | 335 ft | 10 kts | 195° |
| 2026-05-04 11:35 | 52.44829 | -1.73688 | 335 ft | 10 kts | 198° |
| 2026-05-04 11:35 | 52.44765 | -1.73721 | 336 ft | 8 kts | 197° |
| 2026-05-04 11:35 | 52.44699 | -1.73717 | 337 ft | 11 kts | 147° |
| 2026-05-04 11:35 | 52.44629 | -1.73638 | 338 ft | 13 kts | 144° |
| 2026-05-04 11:36 | 52.44545 | -1.73542 | 340 ft | 15 kts | 144° |
| 2026-05-04 11:36 | 52.44461 | -1.73446 | 342 ft | 14 kts | 144° |
| 2026-05-04 11:36 | 52.44388 | -1.73411 | 342 ft | 10 kts | 209° |
| 2026-05-04 11:36 | 52.44343 | -1.73504 | 342 ft | 10 kts | 236° |
| 2026-05-04 11:37 | 52.44311 | -1.73589 | 341 ft | 4 kts | 261° |
| 2026-05-04 11:37 | 52.44330 | -1.73630 | 341 ft | 5 kts | 326° |
| 2026-05-04 11:37 | 52.44392 | -1.73697 | 340 ft | 30 kts | 326° |
| 2026-05-04 11:37 | 52.44778 | -1.74127 | 335 ft | 101 kts | 327° |
| 2026-05-04 11:38 | 52.45523 | -1.74958 | 327 ft | 156 kts | 327° |
| 2026-05-04 11:38 | 52.46444 | -1.76014 | 783 ft | 162 kts | 327° |
| 2026-05-04 11:38 | 52.47388 | -1.77081 | 1353 ft | 170 kts | 326° |
| 2026-05-04 11:38 | 52.48353 | -1.78197 | 1994 ft | 172 kts | 327° |
| 2026-05-04 11:39 | 52.49359 | -1.79299 | 2506 ft | 181 kts | 331° |
| 2026-05-04 11:39 | 52.50588 | -1.79885 | 2867 ft | 196 kts | 1° |
| 2026-05-04 11:40 | 52.52971 | -1.67773 | 5992 ft | 260 kts | 112° |
| 2026-05-04 11:41 | 52.51949 | -1.65296 | 6033 ft | 269 kts | 131° |
| 2026-05-04 11:41 | 52.50573 | -1.63083 | 6392 ft | 282 kts | 136° |
| 2026-05-04 11:41 | 52.49169 | -1.60950 | 7231 ft | 280 kts | 136° |
| 2026-05-04 11:41 | 52.47745 | -1.58735 | 7982 ft | 283 kts | 135° |
| 2026-05-04 11:42 | 52.46340 | -1.56496 | 8720 ft | 287 kts | 135° |
| 2026-05-04 11:42 | 52.44921 | -1.54203 | 9465 ft | 291 kts | 134° |
| 2026-05-04 11:42 | 52.43484 | -1.51865 | 10213 ft | 295 kts | 134° |
| 2026-05-04 11:42 | 52.42016 | -1.49474 | 10695 ft | 309 kts | 134° |
| 2026-05-04 11:43 | 52.40449 | -1.46926 | 11150 ft | 325 kts | 134° |
| 2026-05-04 11:43 | 52.38810 | -1.44263 | 11568 ft | 341 kts | 134° |
| 2026-05-04 11:43 | 52.37223 | -1.41287 | 11957 ft | 357 kts | 124° |
| 2026-05-04 11:43 | 52.36129 | -1.37625 | 12579 ft | 364 kts | 105° |
| 2026-05-04 11:44 | 52.35788 | -1.33524 | 13300 ft | 369 kts | 92° |
| 2026-05-04 11:44 | 52.35784 | -1.29304 | 13996 ft | 375 kts | 90° |
| 2026-05-04 11:44 | 52.35821 | -1.25021 | 14711 ft | 381 kts | 90° |
| 2026-05-04 11:44 | 52.35858 | -1.20721 | 15474 ft | 385 kts | 90° |
| 2026-05-04 11:45 | 52.35887 | -1.16373 | 16230 ft | 389 kts | 90° |
| 2026-05-04 11:45 | 52.35908 | -1.11953 | 16974 ft | 393 kts | 90° |
| 2026-05-04 11:45 | 52.35922 | -1.07490 | 17701 ft | 397 kts | 90° |
| 2026-05-04 11:45 | 52.35931 | -1.02968 | 18423 ft | 400 kts | 91° |
| 2026-05-04 11:46 | 52.35936 | -0.98428 | 19133 ft | 404 kts | 91° |
| 2026-05-04 11:46 | 52.35939 | -0.93785 | 19844 ft | 408 kts | 91° |
| 2026-05-04 11:46 | 52.35940 | -0.89173 | 20526 ft | 411 kts | 91° |
| 2026-05-04 11:46 | 52.35940 | -0.84494 | 21170 ft | 415 kts | 91° |
| 2026-05-04 11:47 | 52.35937 | -0.79747 | 21801 ft | 419 kts | 91° |
| 2026-05-04 11:47 | 52.35934 | -0.74971 | 22413 ft | 423 kts | 91° |
| 2026-05-04 11:47 | 52.35928 | -0.70167 | 23015 ft | 426 kts | 91° |
| 2026-05-04 11:47 | 52.35920 | -0.65316 | 23590 ft | 430 kts | 90° |
| 2026-05-04 11:48 | 52.35908 | -0.60423 | 24149 ft | 434 kts | 90° |
| 2026-05-04 11:48 | 52.35896 | -0.55471 | 24702 ft | 438 kts | 90° |
| 2026-05-04 11:48 | 52.35881 | -0.50453 | 25256 ft | 441 kts | 90° |
| 2026-05-04 11:48 | 52.35865 | -0.45445 | 25811 ft | 444 kts | 90° |
| 2026-05-04 11:49 | 52.35847 | -0.40370 | 26362 ft | 447 kts | 90° |
| 2026-05-04 11:49 | 52.35827 | -0.35307 | 26904 ft | 450 kts | 90° |
| 2026-05-04 11:49 | 52.35804 | -0.30151 | 27440 ft | 453 kts | 91° |
| 2026-05-04 11:49 | 52.35778 | -0.24995 | 28094 ft | 451 kts | 91° |
| 2026-05-04 11:50 | 52.35751 | -0.19967 | 28808 ft | 447 kts | 90° |
| 2026-05-04 11:50 | 52.35721 | -0.14874 | 29458 ft | 445 kts | 90° |
| 2026-05-04 11:50 | 52.35689 | -0.09777 | 30148 ft | 443 kts | 90° |
| 2026-05-04 11:50 | 52.35656 | -0.04765 | 30838 ft | 440 kts | 90° |
| 2026-05-04 11:51 | 52.35621 | 0.00250 | 31164 ft | 444 kts | 90° |
| 2026-05-04 11:51 | 52.35163 | 0.10195 | 31243 ft | 434 kts | 96° |
| 2026-05-04 11:51 | 52.34739 | 0.15070 | 31122 ft | 431 kts | 97° |
| 2026-05-04 11:52 | 52.34273 | 0.19948 | 31084 ft | 441 kts | 96° |
| 2026-05-04 11:52 | 52.33300 | 0.29991 | 31069 ft | 455 kts | 95° |
| 2026-05-04 11:53 | 52.32321 | 0.40299 | 31027 ft | 459 kts | 98° |
| 2026-05-04 11:53 | 52.31355 | 0.50625 | 31022 ft | 462 kts | 102° |
| 2026-05-04 11:55 | 52.27480 | 0.91955 | 31040 ft | 459 kts | 102° |
| 2026-05-04 11:56 | 52.26499 | 1.02233 | 31037 ft | 459 kts | 102° |
| 2026-05-04 11:56 | 52.25511 | 1.12474 | 31032 ft | 459 kts | 102° |
| 2026-05-04 11:57 | 52.24514 | 1.22705 | 31029 ft | 460 kts | 102° |
| 2026-05-04 11:57 | 52.23505 | 1.32968 | 31029 ft | 461 kts | 102° |
| 2026-05-04 11:58 | 52.22480 | 1.43297 | 31029 ft | 461 kts | 102° |
| 2026-05-04 11:58 | 52.21449 | 1.53592 | 31029 ft | 462 kts | 103° |
| 2026-05-04 11:59 | 52.20410 | 1.63870 | 31029 ft | 463 kts | 103° |
| 2026-05-04 11:59 | 52.19356 | 1.74196 | 31031 ft | 463 kts | 104° |
| 2026-05-04 12:00 | 52.18299 | 1.84472 | 30653 ft | 456 kts | 104° |
| 2026-05-04 12:00 | 52.17755 | 1.89700 | 30165 ft | 477 kts | 104° |
| 2026-05-04 12:00 | 52.17195 | 1.95016 | 29569 ft | 482 kts | 104° |
| 2026-05-04 12:00 | 52.16633 | 2.00384 | 28878 ft | 480 kts | 104° |
| 2026-05-04 12:01 | 52.16077 | 2.05690 | 28215 ft | 477 kts | 104° |
| 2026-05-04 12:01 | 52.15525 | 2.10950 | 27570 ft | 474 kts | 104° |
| 2026-05-04 12:02 | 52.12342 | 2.41691 | 23701 ft | 448 kts | 98° |
| 2026-05-04 12:03 | 52.12284 | 2.46760 | 23111 ft | 447 kts | 86° |
| 2026-05-04 12:03 | 52.12933 | 2.51584 | 22920 ft | 433 kts | 71° |
| 2026-05-04 12:03 | 52.14111 | 2.55959 | 22893 ft | 422 kts | 63° |
| 2026-05-04 12:03 | 52.15502 | 2.60165 | 22941 ft | 426 kts | 60° |
| 2026-05-04 12:04 | 52.16994 | 2.64381 | 22949 ft | 426 kts | 59° |
| 2026-05-04 12:04 | 52.18502 | 2.68521 | 22950 ft | 425 kts | 59° |
| 2026-05-04 12:04 | 52.20011 | 2.72627 | 22950 ft | 424 kts | 59° |
| 2026-05-04 12:04 | 52.21540 | 2.76794 | 22991 ft | 425 kts | 59° |
| 2026-05-04 12:05 | 52.23042 | 2.80906 | 23001 ft | 425 kts | 59° |
| 2026-05-04 12:05 | 52.24556 | 2.85074 | 23003 ft | 425 kts | 59° |
| 2026-05-04 12:05 | 52.26047 | 2.89202 | 23004 ft | 424 kts | 59° |
| 2026-05-04 12:05 | 52.27535 | 2.93339 | 22991 ft | 424 kts | 59° |
| 2026-05-04 12:06 | 52.29024 | 2.97496 | 22735 ft | 419 kts | 60° |
| 2026-05-04 12:06 | 52.30489 | 3.01596 | 22148 ft | 421 kts | 60° |
| 2026-05-04 12:06 | 52.31960 | 3.05720 | 21512 ft | 423 kts | 60° |
| 2026-05-04 12:06 | 52.33427 | 3.09850 | 20855 ft | 423 kts | 60° |
| 2026-05-04 12:07 | 52.34882 | 3.13952 | 20245 ft | 421 kts | 60° |
| 2026-05-04 12:07 | 52.36356 | 3.18113 | 19643 ft | 418 kts | 60° |
| 2026-05-04 12:07 | 52.37798 | 3.22193 | 19054 ft | 415 kts | 60° |
| 2026-05-04 12:07 | 52.39227 | 3.26241 | 18457 ft | 411 kts | 60° |
| 2026-05-04 12:08 | 52.40644 | 3.30260 | 17876 ft | 407 kts | 60° |
| 2026-05-04 12:08 | 52.42055 | 3.34271 | 17298 ft | 403 kts | 60° |
| 2026-05-04 12:08 | 52.43412 | 3.38225 | 16728 ft | 398 kts | 62° |
| 2026-05-04 12:08 | 52.44582 | 3.42254 | 16160 ft | 394 kts | 68° |
| 2026-05-04 12:09 | 52.45492 | 3.46450 | 15594 ft | 389 kts | 73° |
| 2026-05-04 12:09 | 52.46195 | 3.50708 | 15036 ft | 385 kts | 77° |
| 2026-05-04 12:09 | 52.46791 | 3.54923 | 14484 ft | 380 kts | 78° |
| 2026-05-04 12:09 | 52.47353 | 3.59155 | 13931 ft | 376 kts | 78° |
| 2026-05-04 12:10 | 52.47895 | 3.63266 | 13393 ft | 372 kts | 78° |
| 2026-05-04 12:10 | 52.48454 | 3.67414 | 12850 ft | 368 kts | 78° |
| 2026-05-04 12:10 | 52.49008 | 3.71445 | 12316 ft | 364 kts | 78° |
| 2026-05-04 12:10 | 52.49573 | 3.75496 | 11773 ft | 361 kts | 78° |
| 2026-05-04 12:11 | 52.50126 | 3.79433 | 11245 ft | 357 kts | 78° |
| 2026-05-04 12:11 | 52.50678 | 3.83358 | 10720 ft | 353 kts | 78° |
| 2026-05-04 12:11 | 52.51225 | 3.87247 | 10370 ft | 344 kts | 77° |
| 2026-05-04 12:11 | 52.51747 | 3.90960 | 10233 ft | 328 kts | 77° |
| 2026-05-04 12:12 | 52.52202 | 3.94590 | 10119 ft | 313 kts | 83° |
| 2026-05-04 12:12 | 52.52256 | 3.98036 | 9978 ft | 301 kts | 100° |
| 2026-05-04 12:12 | 52.51667 | 4.01294 | 9992 ft | 295 kts | 113° |
| 2026-05-04 12:12 | 52.50855 | 4.04375 | 9991 ft | 296 kts | 115° |
| 2026-05-04 12:13 | 52.50018 | 4.07453 | 9990 ft | 296 kts | 115° |
| 2026-05-04 12:14 | 52.44580 | 4.29314 | 9994 ft | 296 kts | 113° |
| 2026-05-04 12:15 | 52.43808 | 4.32447 | 9994 ft | 296 kts | 113° |
| 2026-05-04 12:15 | 52.43042 | 4.35553 | 9994 ft | 296 kts | 113° |
| 2026-05-04 12:15 | 52.42275 | 4.38655 | 9994 ft | 296 kts | 113° |
| 2026-05-04 12:15 | 52.41504 | 4.41765 | 9994 ft | 296 kts | 113° |
| 2026-05-04 12:16 | 52.40725 | 4.44905 | 9966 ft | 297 kts | 113° |
| 2026-05-04 12:16 | 52.39949 | 4.48026 | 9787 ft | 298 kts | 113° |
| 2026-05-04 12:16 | 52.39168 | 4.51170 | 9325 ft | 300 kts | 113° |
| 2026-05-04 12:16 | 52.38388 | 4.54304 | 8926 ft | 298 kts | 112° |
| 2026-05-04 12:17 | 52.37611 | 4.57425 | 8560 ft | 295 kts | 112° |
| 2026-05-04 12:17 | 52.36848 | 4.60482 | 8203 ft | 291 kts | 112° |
| 2026-05-04 12:17 | 52.36091 | 4.63514 | 7849 ft | 288 kts | 112° |
| 2026-05-04 12:17 | 52.35331 | 4.66544 | 7490 ft | 285 kts | 113° |
| 2026-05-04 12:18 | 52.34588 | 4.69515 | 7177 ft | 281 kts | 112° |
| 2026-05-04 12:18 | 52.34052 | 4.72503 | 7011 ft | 264 kts | 98° |
| 2026-05-04 12:18 | 52.34168 | 4.75365 | 6997 ft | 252 kts | 69° |
| 2026-05-04 12:18 | 52.35110 | 4.77767 | 7040 ft | 252 kts | 44° |
| 2026-05-04 12:19 | 52.36415 | 4.79663 | 6988 ft | 250 kts | 40° |
| 2026-05-04 12:19 | 52.37718 | 4.81525 | 6980 ft | 250 kts | 41° |
| 2026-05-04 12:19 | 52.39178 | 4.83712 | 6672 ft | 253 kts | 45° |
| 2026-05-04 12:19 | 52.40219 | 4.85994 | 6300 ft | 255 kts | 66° |
| 2026-05-04 12:20 | 52.40603 | 4.88828 | 5937 ft | 254 kts | 87° |
| 2026-05-04 12:20 | 52.40630 | 4.91692 | 5570 ft | 255 kts | 90° |
| 2026-05-04 12:20 | 52.40644 | 4.94626 | 5194 ft | 256 kts | 89° |
| 2026-05-04 12:20 | 52.40701 | 4.97524 | 4823 ft | 256 kts | 88° |
| 2026-05-04 12:21 | 52.40786 | 5.00411 | 4455 ft | 257 kts | 87° |
| 2026-05-04 12:21 | 52.40804 | 5.03353 | 4078 ft | 257 kts | 95° |
| 2026-05-04 12:21 | 52.40312 | 5.06141 | 3694 ft | 256 kts | 124° |
| 2026-05-04 12:21 | 52.39026 | 5.08023 | 3303 ft | 251 kts | 157° |
| 2026-05-04 12:22 | 52.37369 | 5.08612 | 2943 ft | 241 kts | 178° |
| 2026-05-04 12:22 | 52.35743 | 5.08501 | 2695 ft | 233 kts | 194° |
| 2026-05-04 12:22 | 52.34288 | 5.07358 | 2460 ft | 231 kts | 217° |
| 2026-05-04 12:22 | 52.33166 | 5.05553 | 2220 ft | 229 kts | 238° |
| 2026-05-04 12:23 | 52.32594 | 5.03155 | 2032 ft | 222 kts | 262° |
| 2026-05-04 12:23 | 52.32501 | 5.00739 | 2017 ft | 207 kts | 270° |
| 2026-05-04 12:23 | 52.32474 | 4.98476 | 1995 ft | 191 kts | 267° |
| 2026-05-04 12:23 | 52.32388 | 4.96375 | 1987 ft | 184 kts | 266° |
| 2026-05-04 12:24 | 52.32315 | 4.94355 | 1840 ft | 173 kts | 268° |
| 2026-05-04 12:24 | 52.32259 | 4.92452 | 1556 ft | 165 kts | 268° |
| 2026-05-04 12:24 | 52.32198 | 4.90593 | 1351 ft | 164 kts | 268° |
| 2026-05-04 12:24 | 52.32139 | 4.88813 | 1157 ft | 155 kts | 268° |
| 2026-05-04 12:25 | 52.32082 | 4.87051 | 918 ft | 151 kts | 268° |
| 2026-05-04 12:25 | 52.32025 | 4.85347 | 717 ft | 152 kts | 268° |
| 2026-05-04 12:25 | 52.31968 | 4.83632 | 512 ft | 151 kts | 268° |
| 2026-05-04 12:25 | 52.31910 | 4.81904 | 306 ft | 151 kts | 268° |
| 2026-05-04 12:26 | 52.31852 | 4.80213 | 131 ft | 149 kts | 268° |
| 2026-05-04 12:26 | 52.31793 | 4.78547 | 0 ft | 137 kts | 268° |
| 2026-05-04 12:26 | 52.31754 | 4.77285 | 0 ft | 87 kts | 266° |
| 2026-05-04 12:26 | 52.31728 | 4.76499 | 0 ft | 50 kts | 267° |
| 2026-05-04 12:27 | 52.31675 | 4.76159 | 0 ft | 18 kts | 240° |
| 2026-05-04 12:27 | 52.31606 | 4.75988 | 0 ft | 17 kts | 236° |
| 2026-05-04 12:27 | 52.31551 | 4.75853 | 0 ft | 13 kts | 237° |
| 2026-05-04 12:27 | 52.31495 | 4.75779 | 0 ft | 8 kts | 185° |
| 2026-05-04 12:28 | 52.31446 | 4.75820 | 0 ft | 8 kts | 116° |
| 2026-05-04 12:28 | 52.31444 | 4.75934 | 0 ft | 11 kts | 86° |
| 2026-05-04 12:28 | 52.31450 | 4.76083 | 0 ft | 15 kts | 86° |
| 2026-05-04 12:28 | 52.31459 | 4.76308 | 0 ft | 22 kts | 87° |
| 2026-05-04 12:29 | 52.31468 | 4.76578 | 0 ft | 25 kts | 86° |
| 2026-05-04 12:29 | 52.31477 | 4.76863 | 0 ft | 20 kts | 87° |
| 2026-05-04 12:29 | 52.31483 | 4.77053 | 0 ft | 15 kts | 87° |
| 2026-05-04 12:29 | 52.31448 | 4.77219 | 0 ft | 15 kts | 130° |
| 2026-05-04 12:30 | 52.31372 | 4.77365 | 0 ft | 18 kts | 130° |
| 2026-05-04 12:30 | 52.31272 | 4.77499 | 0 ft | 19 kts | 164° |
| 2026-05-04 12:30 | 52.31157 | 4.77498 | 0 ft | 16 kts | 183° |
| 2026-05-04 12:30 | 52.31074 | 4.77463 | 0 ft | 12 kts | 238° |
| 2026-05-04 12:31 | 52.31072 | 4.77307 | 0 ft | 15 kts | 274° |
| 2026-05-04 12:31 | 52.31079 | 4.77129 | 0 ft | 13 kts | 272° |
| 2026-05-04 12:31 | 52.31077 | 4.77033 | 0 ft | 5 kts | 238° |
| 2026-05-04 12:31 | 52.31036 | 4.77018 | 0 ft | 5 kts | 178° |
| 2026-05-04 12:32 | 52.31010 | 4.77020 | 0 ft | 1 kts | 179° |
| 2026-05-04 12:32 | 52.31009 | 4.77020 | 0 ft | 0 kts | 179° |